TimeCST,TemperatureF,Dew PointF,Humidity,Sea Level PressureIn,VisibilityMPH,Wind Direction,Wind SpeedMPH,Gust SpeedMPH,PrecipitationIn,Events,Conditions,WindDirDegrees,DateUTC
12:52 AM,9.0,1.9,73,30.30,10.0,Calm,Calm,-,N/A,,Clear,0,2014-03-04 06:52:00
1:52 AM,9.0,1.9,73,30.30,10.0,Calm,Calm,-,N/A,,Clear,0,2014-03-04 07:52:00
2:52 AM,8.1,1.9,76,30.28,10.0,Calm,Calm,-,N/A,,Clear,0,2014-03-04 08:52:00
3:52 AM,8.1,3.0,80,30.26,10.0,Calm,Calm,-,N/A,,Clear,0,2014-03-04 09:52:00
4:52 AM,8.1,3.0,80,30.28,10.0,Calm,Calm,-,N/A,,Clear,0,2014-03-04 10:52:00
5:52 AM,8.1,1.9,76,30.25,10.0,SSE,3.5,-,N/A,,Clear,150,2014-03-04 11:52:00
6:52 AM,8.1,1.9,76,30.26,10.0,SSE,3.5,-,N/A,,Clear,150,2014-03-04 12:52:00
7:52 AM,14.0,3.9,64,30.26,10.0,South,5.8,-,N/A,,Clear,180,2014-03-04 13:52:00
8:52 AM,19.9,7.0,57,30.26,10.0,SSE,4.6,-,N/A,,Clear,160,2014-03-04 14:52:00
9:52 AM,24.1,10.0,55,30.22,10.0,South,5.8,-,N/A,,Clear,180,2014-03-04 15:52:00
10:52 AM,28.9,12.0,49,30.21,10.0,South,10.4,-,N/A,,Clear,190,2014-03-04 16:52:00
11:52 AM,30.9,14.0,50,30.19,10.0,South,10.4,-,N/A,,Clear,190,2014-03-04 17:52:00
12:52 PM,33.1,17.1,52,30.17,10.0,SSW,11.5,-,N/A,,Clear,200,2014-03-04 18:52:00
1:52 PM,36.0,19.0,50,30.13,10.0,South,11.5,18.4,N/A,,Clear,190,2014-03-04 19:52:00
2:52 PM,39.0,19.9,46,30.11,10.0,South,9.2,-,N/A,,Clear,190,2014-03-04 20:52:00
3:52 PM,39.9,21.0,47,30.09,10.0,SSE,9.2,-,N/A,,Clear,160,2014-03-04 21:52:00
4:52 PM,39.0,21.0,49,30.06,10.0,SSE,9.2,-,N/A,,Clear,150,2014-03-04 22:52:00
5:52 PM,36.0,23.0,59,30.07,10.0,SSE,5.8,-,N/A,,Clear,150,2014-03-04 23:52:00
6:52 PM,33.1,21.9,64,30.08,10.0,SSE,4.6,-,N/A,,Clear,150,2014-03-05 00:52:00
7:52 PM,32.0,21.9,66,30.07,10.0,SSE,4.6,-,N/A,,Clear,150,2014-03-05 01:52:00
8:52 PM,30.9,21.9,69,30.07,10.0,Calm,Calm,-,N/A,,Clear,0,2014-03-05 02:52:00
9:52 PM,27.0,21.0,78,30.08,10.0,Calm,Calm,-,N/A,,Clear,0,2014-03-05 03:52:00
10:52 PM,25.0,19.9,81,30.07,9.0,Calm,Calm,-,N/A,,Clear,0,2014-03-05 04:52:00
11:52 PM,30.0,21.9,72,30.06,9.0,South,3.5,-,N/A,,Clear,170,2014-03-05 05:52:00